createdAt,value
2017-04-03T00:00:42.749Z,93.4
2017-04-03T00:01:44.561Z,93.5
2017-04-03T00:02:46.377Z,93.4
2017-04-03T00:03:48.178Z,93.5
2017-04-03T00:04:50.002Z,93.7
2017-04-03T00:05:51.820Z,93.4
2017-04-03T00:06:54.011Z,93.5
2017-04-03T00:07:55.835Z,93.3
2017-04-03T00:08:57.641Z,93.1
2017-04-03T00:09:59.464Z,92.8
2017-04-03T00:11:01.279Z,92.9
2017-04-03T00:12:03.091Z,93.1
2017-04-03T00:13:04.901Z,93
2017-04-03T00:14:06.715Z,93
2017-04-03T00:15:08.537Z,92.8
2017-04-03T00:16:10.337Z,92.7
2017-04-03T00:17:12.207Z,93.1
2017-04-03T00:18:14.013Z,93.4
2017-04-03T00:19:16.167Z,93.4
2017-04-03T00:20:18.001Z,93.2
2017-04-03T00:21:19.812Z,93.3
2017-04-03T00:22:21.962Z,93.3
2017-04-03T00:23:23.781Z,93.4
2017-04-03T00:24:25.623Z,93.2
2017-04-03T00:25:27.429Z,93.3
2017-04-03T00:26:29.259Z,93.4
2017-04-03T00:27:31.088Z,93.3
2017-04-03T00:28:33.232Z,93.3
2017-04-03T00:29:35.056Z,93.3
2017-04-03T00:30:36.869Z,93.1
2017-04-03T00:31:38.690Z,93.3
2017-04-03T00:32:40.511Z,93.2
2017-04-03T00:33:42.394Z,93
2017-04-03T00:34:44.286Z,92.8
2017-04-03T00:35:46.101Z,93.1
2017-04-03T00:36:47.915Z,93.4
2017-04-03T00:37:49.726Z,93.1
2017-04-03T00:38:51.542Z,93.2
2017-04-03T00:39:53.714Z,93.3
2017-04-03T00:40:55.521Z,93.3
2017-04-03T00:41:57.353Z,93.4
2017-04-03T00:42:59.167Z,93
2017-04-03T00:44:01.001Z,93
2017-04-03T00:45:03.140Z,93.2
2017-04-03T00:46:05.306Z,93.4
2017-04-03T00:47:07.123Z,93.5
2017-04-03T00:48:08.941Z,93.6
2017-04-03T00:49:11.109Z,93.6
2017-04-03T00:50:13.256Z,93.4
2017-04-03T00:51:15.067Z,93.4
2017-04-03T00:52:16.889Z,93.6
2017-04-03T00:53:19.045Z,93.5
2017-04-03T00:54:20.860Z,93.7
2017-04-03T00:55:22.677Z,93.8
2017-04-03T00:56:24.495Z,93.6
2017-04-03T00:57:26.305Z,93.4
2017-04-03T00:58:28.141Z,93.4
2017-04-03T00:59:29.948Z,93.5
2017-04-03T01:00:31.767Z,93.4
2017-04-03T01:01:33.585Z,93.4
2017-04-03T01:02:35.410Z,93.5
2017-04-03T01:03:37.221Z,93.4
2017-04-03T01:04:39.032Z,93.5
2017-04-03T01:05:40.856Z,93.5
2017-04-03T01:06:42.665Z,93.8
2017-04-03T01:07:44.493Z,93.9
2017-04-03T01:08:46.311Z,93.7
2017-04-03T01:09:48.125Z,93.8
2017-04-03T01:10:49.949Z,93.9
2017-04-03T01:11:51.775Z,93.9
2017-04-03T01:12:53.594Z,93.6
2017-04-03T01:13:55.408Z,93.5
2017-04-03T01:14:57.230Z,93.2
2017-04-03T01:15:59.410Z,92.8
2017-04-03T01:17:01.231Z,93
2017-04-03T01:18:03.048Z,93.1
2017-04-03T01:19:04.861Z,92.8
2017-04-03T01:20:06.687Z,92.7
2017-04-03T01:21:08.501Z,92.8
2017-04-03T01:22:10.318Z,92.9
2017-04-03T01:23:12.132Z,93.1
2017-04-03T01:25:18.181Z,92.8
2017-04-03T01:26:20.015Z,93.3
2017-04-03T01:27:53.956Z,92.9
2017-04-03T01:28:55.776Z,92.8
2017-04-03T01:29:57.596Z,92.8
2017-04-03T01:30:59.421Z,92.9
2017-04-03T01:32:01.584Z,92.7
2017-04-03T01:33:03.403Z,92.6
2017-04-03T01:34:05.228Z,92.8
2017-04-03T01:35:07.384Z,92.8
2017-04-03T01:36:09.208Z,93.2
2017-04-03T01:37:11.030Z,93.2
2017-04-03T01:38:12.850Z,93.2
2017-04-03T01:39:14.670Z,93.2
2017-04-03T01:40:16.489Z,93.2
2017-04-03T01:41:18.646Z,93.3
2017-04-03T01:42:20.465Z,93.4
2017-04-03T01:43:22.286Z,93.4
2017-04-03T01:44:24.114Z,93.3
2017-04-03T01:45:25.938Z,93.7
2017-04-03T01:46:27.759Z,93.5
2017-04-03T01:47:29.585Z,93.5
2017-04-03T01:48:31.422Z,93.5
2017-04-03T01:49:33.591Z,93.3
2017-04-03T01:50:35.419Z,93.1
2017-04-03T01:51:37.241Z,93.2
2017-04-03T01:52:39.060Z,93
2017-04-03T01:53:40.886Z,93.2
2017-04-03T01:54:42.708Z,93.2
2017-04-03T01:55:44.571Z,92.9
2017-04-03T01:56:46.389Z,92.9
2017-04-03T01:57:48.215Z,93
2017-04-03T01:58:50.030Z,93.1
2017-04-03T01:59:51.850Z,93.2
2017-04-03T02:00:54.028Z,92.8
2017-04-03T02:01:56.185Z,92.9
2017-04-03T02:02:58.003Z,92.9
2017-04-03T02:03:59.823Z,93
2017-04-03T02:05:01.643Z,92.5
2017-04-03T02:06:03.477Z,92.4
2017-04-03T02:07:05.301Z,92.5
2017-04-03T02:08:07.126Z,92.8
2017-04-03T02:09:08.938Z,93
2017-04-03T02:10:11.097Z,93.2
2017-04-03T02:11:12.920Z,92.9
2017-04-03T02:12:14.747Z,93.1
2017-04-03T02:13:16.572Z,92.9
2017-04-03T02:14:18.401Z,92.8
2017-04-03T02:15:20.227Z,93
2017-04-03T02:16:22.049Z,93
2017-04-03T02:17:23.866Z,92.7
2017-04-03T02:18:25.687Z,93
2017-04-03T02:19:27.550Z,92.8
2017-04-03T02:20:29.373Z,92.7
2017-04-03T02:21:31.193Z,92.9
2017-04-03T02:22:33.350Z,92.6
2017-04-03T02:23:35.169Z,92.6
2017-04-03T02:24:37.327Z,92.8
2017-04-03T02:25:39.162Z,93.1
2017-04-03T02:26:40.984Z,92.9
2017-04-03T02:27:42.801Z,93
2017-04-03T02:28:44.629Z,93.2
2017-04-03T02:29:46.809Z,93.3
2017-04-03T02:30:48.638Z,93.5
2017-04-03T02:31:50.459Z,93.4
2017-04-03T02:32:52.280Z,93.8
2017-04-03T02:33:54.126Z,94.1
2017-04-03T02:34:56.284Z,94
2017-04-03T02:35:58.108Z,93.9
2017-04-03T02:36:59.937Z,93.5
2017-04-03T02:38:01.752Z,93.2
2017-04-03T02:39:03.919Z,92.8
2017-04-03T02:40:05.746Z,92.6
2017-04-03T02:41:07.916Z,92.8
2017-04-03T02:42:09.727Z,92.5
2017-04-03T02:43:11.556Z,92.6
2017-04-03T02:44:13.371Z,92.6
2017-04-03T02:45:15.201Z,92.6
2017-04-03T02:46:17.022Z,92.7
2017-04-03T02:47:19.185Z,92.9
2017-04-03T02:48:21.007Z,93.1
2017-04-03T02:49:22.832Z,93.1
2017-04-03T02:50:24.992Z,93
2017-04-03T02:51:26.814Z,93.1
2017-04-03T02:52:28.641Z,93.2
2017-04-03T02:53:30.460Z,93.2
2017-04-03T02:54:32.284Z,93.3
2017-04-03T02:55:34.125Z,93.4
2017-04-03T02:56:35.946Z,93.4
2017-04-03T02:57:37.770Z,93.5
2017-04-03T02:58:39.590Z,93.4
2017-04-03T02:59:41.410Z,93.3
2017-04-03T03:00:43.239Z,93.3
2017-04-03T03:01:45.064Z,93.3
2017-04-03T03:02:46.887Z,93.7
2017-04-03T03:03:48.714Z,93.7
2017-04-03T03:04:50.536Z,93.9
2017-04-03T03:05:52.707Z,94
2017-04-03T03:06:54.536Z,93.8
2017-04-03T03:07:56.373Z,94
2017-04-03T03:08:58.196Z,93.6
2017-04-03T03:10:00.353Z,93.6
2017-04-03T03:11:02.180Z,93.5
2017-04-03T03:12:04.352Z,93.8
2017-04-03T03:13:06.175Z,94.2
2017-04-03T03:14:08.002Z,94.2
2017-04-03T03:15:09.821Z,94.4
2017-04-03T03:16:11.997Z,94.2
2017-04-03T03:17:13.825Z,94.2
2017-04-03T03:18:15.644Z,93.5
2017-04-03T03:19:17.463Z,93.4
2017-04-03T03:20:19.291Z,93.3
2017-04-03T03:21:21.119Z,93.4
2017-04-03T03:22:22.950Z,93.9
2017-04-03T03:23:24.761Z,93.5
2017-04-03T03:24:26.584Z,93.3
2017-04-03T03:25:28.407Z,93.4
2017-04-03T03:26:30.234Z,92.9
2017-04-03T03:27:32.057Z,93.1
2017-04-03T03:28:33.885Z,93.2
2017-04-03T03:29:35.705Z,93.4
2017-04-03T03:30:37.532Z,93.6
2017-04-03T03:31:39.398Z,93.8
2017-04-03T03:32:41.220Z,94.2
2017-04-03T03:33:43.047Z,94.3
2017-04-03T03:34:44.870Z,94.5
2017-04-03T03:35:46.696Z,94.3
2017-04-03T03:36:48.857Z,94.6
2017-04-03T03:37:50.685Z,94.3
2017-04-03T03:38:52.845Z,94.4
2017-04-03T03:39:54.665Z,94.5
2017-04-03T03:40:56.494Z,94.6
2017-04-03T03:41:58.313Z,94.4
2017-04-03T03:43:00.136Z,94
2017-04-03T03:44:01.968Z,93.6
2017-04-03T03:45:03.787Z,93.7
2017-04-03T03:46:05.963Z,93.6
2017-04-03T03:47:07.788Z,93.5
2017-04-03T03:48:09.612Z,93.5
2017-04-03T03:49:11.430Z,93.6
2017-04-03T03:50:13.589Z,93.6
2017-04-03T03:51:15.420Z,93.9
2017-04-03T03:52:17.247Z,93.8
2017-04-03T03:53:19.081Z,93.9
2017-04-03T03:54:20.913Z,93.9
2017-04-03T03:55:22.730Z,94.2
2017-04-03T03:56:24.549Z,94.1
2017-04-03T03:57:26.377Z,94
2017-04-03T03:58:28.214Z,94.2
2017-04-03T03:59:30.037Z,94.4
2017-04-03T04:00:31.853Z,94.4
2017-04-03T04:01:33.721Z,94.9
2017-04-03T04:02:35.547Z,94.6
2017-04-03T04:03:37.378Z,94.8
2017-04-03T04:04:39.198Z,94.3
2017-04-03T04:05:41.365Z,94.5
2017-04-03T04:06:43.187Z,94.6
2017-04-03T04:07:45.028Z,94.3
2017-04-03T04:08:47.533Z,94.2
2017-04-03T04:09:49.686Z,94.1
2017-04-03T04:10:51.513Z,94
2017-04-03T04:11:53.334Z,94.2
2017-04-03T04:12:55.157Z,94.4
2017-04-03T04:13:56.981Z,94.4
2017-04-03T04:14:58.813Z,94.5
2017-04-03T04:16:00.633Z,94.2
2017-04-03T04:17:02.458Z,94.3
2017-04-03T04:18:04.281Z,94.3
2017-04-03T04:19:06.114Z,94.4
2017-04-03T04:20:07.939Z,94.5
2017-04-03T04:21:09.762Z,94.5
2017-04-03T04:22:11.587Z,94.3
2017-04-03T04:23:13.410Z,94.3
2017-04-03T04:24:15.240Z,94.1
2017-04-03T04:25:17.063Z,94.4
2017-04-03T04:26:18.890Z,94.4
2017-04-03T04:27:21.053Z,94.2
2017-04-03T04:28:22.877Z,94.5
2017-04-03T04:29:24.707Z,94.8
2017-04-03T04:30:26.864Z,94.8
2017-04-03T04:31:28.689Z,95.2
2017-04-03T04:32:30.521Z,95.5
2017-04-03T04:33:32.346Z,95.5
2017-04-03T04:34:34.176Z,95.7
2017-04-03T04:35:36.036Z,95.5
2017-04-03T04:36:37.862Z,95.3
2017-04-03T04:37:39.679Z,95.5
2017-04-03T04:38:41.506Z,95.4
2017-04-03T04:39:43.331Z,95.7
2017-04-03T04:40:45.158Z,94.8
2017-04-03T04:41:46.979Z,94.9
2017-04-03T04:42:48.807Z,95.1
2017-04-03T04:43:50.971Z,95.5
2017-04-03T04:44:53.146Z,95.6
2017-04-03T04:45:54.967Z,94.8
2017-04-03T04:46:57.142Z,94.9
2017-04-03T04:47:58.967Z,94.9
2017-04-03T04:49:00.800Z,94.8
2017-04-03T04:50:02.621Z,94.9
2017-04-03T04:51:04.442Z,94.8
2017-04-03T04:52:06.277Z,95.1
2017-04-03T04:53:08.096Z,95.2
2017-04-03T04:54:10.276Z,94.8
2017-04-03T04:55:12.431Z,95.3
2017-04-03T04:56:14.269Z,94.7
2017-04-03T04:57:16.091Z,94.9
2017-04-03T04:58:17.917Z,95.2
2017-04-03T04:59:19.735Z,95.1
2017-04-03T05:00:21.577Z,94.9
2017-04-03T05:01:23.734Z,94.9
2017-04-03T05:02:25.558Z,94.9
2017-04-03T05:03:27.381Z,95.1
2017-04-03T05:04:29.541Z,94.7
2017-04-03T05:05:31.363Z,94.5
2017-04-03T05:06:33.193Z,94.7
2017-04-03T05:07:35.018Z,94.9
2017-04-03T05:08:37.186Z,94.4
2017-04-03T05:09:39.023Z,94.6
2017-04-03T05:10:41.205Z,94.6
2017-04-03T05:11:43.025Z,94.5
2017-04-03T05:12:45.201Z,94.6
2017-04-03T05:13:47.024Z,95.3
2017-04-03T05:14:49.205Z,95.1
2017-04-03T05:15:51.030Z,94.9
2017-04-03T05:16:53.197Z,94.8
2017-04-03T05:17:55.023Z,94.6
2017-04-03T05:18:56.846Z,94.6
2017-04-03T05:19:58.675Z,94.8
2017-04-03T05:21:00.862Z,95.1
2017-04-03T05:22:03.019Z,94.9
2017-04-03T05:23:04.843Z,94.9
2017-04-03T05:24:06.671Z,94.7
2017-04-03T05:25:08.493Z,94.6
2017-04-03T05:26:10.321Z,94.4
2017-04-03T05:27:12.146Z,94.1
2017-04-03T05:28:13.972Z,94.3
2017-04-03T05:29:15.796Z,94.7
2017-04-03T05:30:17.622Z,95.2
2017-04-03T05:31:19.452Z,94.9
2017-04-03T05:32:21.330Z,94.8
2017-04-03T05:33:23.156Z,95.3
2017-04-03T05:34:25.318Z,94.8
2017-04-03T05:35:27.131Z,95.2
2017-04-03T05:36:28.961Z,94.4
2017-04-03T05:37:30.823Z,94.5
2017-04-03T05:38:32.994Z,94.6
2017-04-03T05:39:34.820Z,94.4
2017-04-03T05:40:36.638Z,94.2
2017-04-03T05:41:38.467Z,94.5
2017-04-03T05:42:40.290Z,94.3
2017-04-03T05:43:42.459Z,93.4
2017-04-03T05:44:44.288Z,93.1
2017-04-03T05:45:46.118Z,93.4
2017-04-03T05:46:47.945Z,93.5
2017-04-03T05:47:49.774Z,94.1
2017-04-03T05:48:51.591Z,94.3
2017-04-03T05:49:53.413Z,93.9
2017-04-03T05:50:55.241Z,94.1
2017-04-03T05:51:57.063Z,93.9
2017-04-03T05:52:58.886Z,94.1
2017-04-03T05:54:00.713Z,93.8
2017-04-03T05:55:02.874Z,93
2017-04-03T05:56:04.712Z,93.6
2017-04-03T05:57:06.531Z,94.4
2017-04-03T05:58:08.362Z,94.8
2017-04-03T05:59:10.191Z,94.1
2017-04-03T06:00:12.356Z,94.3
2017-04-03T06:01:14.178Z,93.6
2017-04-03T06:02:16.007Z,93.7
2017-04-03T06:03:18.175Z,93.6
2017-04-03T06:04:20.344Z,93.8
2017-04-03T06:05:22.173Z,93.9
2017-04-03T06:06:23.994Z,94.4
2017-04-03T06:07:25.822Z,94.5
2017-04-03T06:08:27.650Z,94.5
2017-04-03T06:09:29.821Z,94.4
2017-04-03T06:10:31.643Z,93.8
2017-04-03T06:11:33.475Z,94
2017-04-03T06:12:35.296Z,94.2
2017-04-03T06:13:37.123Z,94.6
2017-04-03T06:14:38.947Z,94.4
2017-04-03T06:15:40.772Z,94
2017-04-03T06:16:42.603Z,94
2017-04-03T06:17:44.424Z,94
2017-04-03T06:18:46.255Z,93.9
2017-04-03T06:19:48.080Z,93.6
2017-04-03T06:20:50.250Z,93
2017-04-03T06:21:52.429Z,93.2
2017-04-03T06:22:54.288Z,93.5
2017-04-03T06:23:56.450Z,93.2
2017-04-03T06:24:58.338Z,93.5
2017-04-03T06:26:00.503Z,93.2
2017-04-03T06:27:02.328Z,93
2017-04-03T06:28:04.157Z,93.7
2017-04-03T06:29:05.984Z,93.9
2017-04-03T06:30:07.805Z,94.1
2017-04-03T06:31:09.633Z,94.2
2017-04-03T06:32:11.791Z,94.4
2017-04-03T06:33:13.629Z,93.6
2017-04-03T06:34:15.447Z,93
2017-04-03T06:35:17.282Z,92.7
2017-04-03T06:36:19.109Z,92.7
2017-04-03T06:37:20.936Z,92.2
2017-04-03T06:38:22.754Z,92
2017-04-03T06:39:24.579Z,92
2017-04-03T06:40:26.402Z,91.5
2017-04-03T06:41:28.273Z,91.6
2017-04-03T06:42:30.105Z,91.4
2017-04-03T06:43:31.928Z,91.6
2017-04-03T06:44:34.101Z,91.3
2017-04-03T06:45:35.916Z,91.1
2017-04-03T06:46:37.750Z,91.7
2017-04-03T06:47:39.582Z,91.1
2017-04-03T06:48:41.410Z,90.9
2017-04-03T06:49:43.227Z,90.3
2017-04-03T06:50:45.051Z,90.3
2017-04-03T06:51:46.878Z,90.1
2017-04-03T06:52:48.703Z,90.2
2017-04-03T06:53:50.569Z,90.9
2017-04-03T06:54:52.761Z,90.2
2017-04-03T06:55:54.589Z,90.4
2017-04-03T06:56:56.414Z,90.4
2017-04-03T06:57:58.241Z,90.2
2017-04-03T06:59:00.403Z,90
2017-04-03T07:00:02.575Z,90.1
2017-04-03T07:01:04.755Z,90
2017-04-03T07:02:06.587Z,90
2017-04-03T07:03:08.419Z,90.2
2017-04-03T07:04:10.244Z,90.3
2017-04-03T07:05:12.073Z,89.7
2017-04-03T07:06:13.905Z,89.5
2017-04-03T07:07:16.076Z,89.8
2017-04-03T07:08:17.913Z,89.3
2017-04-03T07:09:19.741Z,88.1
2017-04-03T07:10:21.565Z,89
2017-04-03T07:11:23.385Z,87.3
2017-04-03T07:12:25.210Z,87.6
2017-04-03T07:13:27.376Z,87.7
2017-04-03T07:14:29.238Z,87.3
2017-04-03T07:15:31.072Z,87.2
2017-04-03T07:16:32.903Z,87.6
2017-04-03T07:17:34.723Z,87.9
2017-04-03T07:18:36.550Z,87.3
2017-04-03T07:19:39.063Z,87.8
2017-04-03T07:20:41.222Z,86.7
2017-04-03T07:21:43.048Z,87
2017-04-03T07:22:44.878Z,87.3
2017-04-03T07:23:46.704Z,87
2017-04-03T07:24:48.535Z,86.8
2017-04-03T07:25:50.361Z,86.3
2017-04-03T07:26:52.540Z,87.2
2017-04-03T07:27:54.383Z,86.9
2017-04-03T07:28:56.201Z,86.4
2017-04-03T07:29:58.030Z,86.7
2017-04-03T07:30:59.849Z,85.9
2017-04-03T07:32:01.689Z,87.1
2017-04-03T07:33:03.515Z,86.9
2017-04-03T07:34:05.344Z,86.1
2017-04-03T07:35:07.172Z,85.5
2017-04-03T07:36:08.988Z,86
2017-04-03T07:37:10.821Z,85.6
2017-04-03T07:38:12.646Z,84.6
2017-04-03T07:39:14.472Z,85.9
2017-04-03T07:40:16.294Z,86.1
2017-04-03T07:41:18.471Z,85.8
2017-04-03T07:42:20.300Z,84.9
2017-04-03T07:43:22.459Z,85.8
2017-04-03T07:44:24.283Z,85.4
2017-04-03T07:45:26.111Z,85.4
2017-04-03T07:46:27.940Z,85
2017-04-03T07:47:29.803Z,85.3
2017-04-03T07:48:31.972Z,85.3
2017-04-03T07:49:33.871Z,85.7
2017-04-03T07:50:35.699Z,85.6
2017-04-03T07:51:37.603Z,84.4
2017-04-03T07:52:39.462Z,84.1
2017-04-03T07:53:41.676Z,84.4
2017-04-03T07:54:43.526Z,83.8
2017-04-03T07:55:45.356Z,83.7
2017-04-03T07:56:47.187Z,83.6
2017-04-03T07:57:49.019Z,82.7
2017-04-03T07:58:50.898Z,83.7
2017-04-03T07:59:52.737Z,85
2017-04-03T08:00:54.593Z,84.3
2017-04-03T08:01:56.804Z,83.8
2017-04-03T08:02:58.652Z,83.5
2017-04-03T08:04:00.534Z,84.2
2017-04-03T08:05:02.371Z,84.4
2017-04-03T08:06:04.553Z,84.2
2017-04-03T08:07:06.728Z,84
2017-04-03T08:08:08.558Z,83.3
2017-04-03T08:09:10.849Z,83.4
2017-04-03T08:10:12.675Z,83.8
2017-04-03T08:11:14.591Z,84.3
2017-04-03T08:12:16.421Z,84.4
2017-04-03T08:13:18.261Z,84
2017-04-03T08:14:20.092Z,84.5
2017-04-03T08:15:21.922Z,83.4
2017-04-03T08:16:23.766Z,83
2017-04-03T08:17:25.664Z,82.8
2017-04-03T08:18:27.490Z,83.5
2017-04-03T08:19:29.319Z,83.3
2017-04-03T08:20:31.158Z,84.2
2017-04-03T08:21:33.163Z,84
2017-04-03T08:22:34.990Z,84.3
2017-04-03T08:23:37.155Z,84
2017-04-03T08:24:39.160Z,84.5
2017-04-03T08:25:40.987Z,83.6
2017-04-03T08:26:42.812Z,84.5
2017-04-03T08:27:44.636Z,83.7
2017-04-03T08:28:46.813Z,83.4
2017-04-03T08:29:48.652Z,83.3
2017-04-03T08:30:50.484Z,83.4
2017-04-03T08:31:52.310Z,83.7
2017-04-03T08:32:54.151Z,83.6
2017-04-03T08:33:55.990Z,83.8
2017-04-03T08:34:57.842Z,83.4
2017-04-03T08:35:59.695Z,83.1
2017-04-03T08:37:01.519Z,82.5
2017-04-03T08:38:03.349Z,82.8
2017-04-03T08:39:05.178Z,82.6
2017-04-03T08:40:07.182Z,83
2017-04-03T08:41:09.004Z,82.4
2017-04-03T08:42:10.845Z,82
2017-04-03T08:43:12.671Z,81.9
2017-04-03T08:44:14.686Z,82.2
2017-04-03T08:45:16.518Z,81.6
2017-04-03T08:46:18.692Z,81.8
2017-04-03T08:47:20.517Z,82.1
2017-04-03T08:48:22.527Z,81.9
2017-04-03T08:49:24.363Z,82.7
2017-04-03T08:50:26.192Z,82.2
2017-04-03T08:51:28.023Z,81.2
2017-04-03T08:52:29.979Z,82
2017-04-03T08:53:31.798Z,81.6
2017-04-03T08:54:33.631Z,80.7
2017-04-03T08:55:35.461Z,77.8
2017-04-03T08:56:37.284Z,76.4
2017-04-03T08:57:39.122Z,77
2017-04-03T08:58:40.951Z,75.3
2017-04-03T08:59:43.067Z,75.2
2017-04-03T09:00:44.894Z,73.8
2017-04-03T09:01:46.728Z,74.2
2017-04-03T09:02:48.569Z,73.6
2017-04-03T09:03:50.397Z,73.3
2017-04-03T09:04:52.575Z,73
2017-04-03T09:05:54.400Z,72.6
2017-04-03T09:06:56.230Z,71.8
2017-04-03T09:07:58.055Z,72.4
2017-04-03T09:08:59.882Z,73.8
2017-04-03T09:10:01.714Z,72.1
2017-04-03T09:11:03.537Z,72.2
2017-04-03T09:12:05.363Z,71.5
2017-04-03T09:13:07.191Z,71.4
2017-04-03T09:14:09.008Z,73
2017-04-03T09:15:10.843Z,72.2
2017-04-03T09:16:12.670Z,72.5
2017-04-03T09:17:14.504Z,71.8
2017-04-03T09:18:16.368Z,72.5
2017-04-03T09:19:18.207Z,72.1
2017-04-03T09:20:20.032Z,71.2
2017-04-03T09:21:21.868Z,71.6
2017-04-03T09:22:23.690Z,71.4
2017-04-03T09:23:25.522Z,70.5
2017-04-03T09:24:27.680Z,70.8
2017-04-03T09:25:29.505Z,69.9
2017-04-03T09:26:31.337Z,69.6
2017-04-03T09:27:33.200Z,69.9
2017-04-03T09:28:35.033Z,69.9
2017-04-03T09:29:36.859Z,70.6
2017-04-03T09:30:38.686Z,71.5
2017-04-03T09:31:40.514Z,71.3
2017-04-03T09:32:42.352Z,70.6
2017-04-03T09:33:44.391Z,71
2017-04-03T09:34:46.346Z,70.3
2017-04-03T09:35:48.177Z,70.5
2017-04-03T09:36:50.004Z,69.6
2017-04-03T09:37:51.986Z,70.1
2017-04-03T09:38:53.817Z,70.1
2017-04-03T09:39:55.976Z,71.6
2017-04-03T09:40:57.812Z,71.4
2017-04-03T09:41:59.884Z,70.7
2017-04-03T09:43:01.717Z,70
2017-04-03T09:44:03.560Z,69.9
2017-04-03T09:45:05.722Z,69.9
2017-04-03T09:46:07.563Z,70
2017-04-03T09:47:09.406Z,70.2
2017-04-03T09:48:11.235Z,70
2017-04-03T09:49:13.683Z,70
2017-04-03T09:50:15.511Z,70.4
2017-04-03T09:51:17.340Z,70
2017-04-03T09:52:19.290Z,70
2017-04-03T09:53:21.536Z,71.6
2017-04-03T09:54:23.365Z,70.7
2017-04-03T09:55:25.228Z,70.4
2017-04-03T09:56:27.408Z,70.7
2017-04-03T09:57:29.572Z,72.3
2017-04-03T09:58:31.404Z,72.3
2017-04-03T09:59:33.579Z,73
2017-04-03T10:00:35.414Z,73.4
2017-04-03T10:01:37.932Z,74.4
2017-04-03T10:02:39.770Z,74.7
2017-04-03T10:03:41.602Z,75.2
2017-04-03T10:04:43.436Z,75.9
2017-04-03T10:05:46.014Z,75.3
2017-04-03T10:06:47.846Z,74.9
2017-04-03T10:07:49.685Z,74.9
2017-04-03T10:08:51.525Z,74.6
2017-04-03T10:09:53.770Z,73.9
2017-04-03T10:10:55.610Z,74.5
2017-04-03T10:11:57.453Z,74.5
2017-04-03T10:12:59.278Z,74.5
2017-04-03T10:14:01.116Z,74.7
2017-04-03T10:15:03.107Z,75.2
2017-04-03T10:16:04.928Z,76.4
2017-04-03T10:17:06.757Z,76
2017-04-03T10:18:08.591Z,75.8
2017-04-03T10:19:10.769Z,76.3
2017-04-03T10:20:12.595Z,76.1
2017-04-03T10:21:14.457Z,76.2
2017-04-03T10:22:16.296Z,76.2
2017-04-03T10:23:18.127Z,77
2017-04-03T10:24:19.965Z,77.1
2017-04-03T10:25:21.790Z,77.8
2017-04-03T10:26:23.615Z,78.2
2017-04-03T10:27:25.758Z,78.9
2017-04-03T10:28:27.591Z,79.7
2017-04-03T10:29:29.418Z,79.8
2017-04-03T10:30:31.248Z,79.2
2017-04-03T10:31:33.122Z,79.6
2017-04-03T10:32:34.953Z,79.7
2017-04-03T10:33:36.799Z,80
2017-04-03T10:34:38.628Z,81.1
2017-04-03T10:35:40.457Z,80.9
2017-04-03T10:36:42.286Z,80.6
2017-04-03T10:37:44.119Z,80.2
2017-04-03T10:38:46.285Z,80.3
2017-04-03T10:39:48.119Z,79.6
2017-04-03T10:40:50.414Z,80
2017-04-03T10:41:52.640Z,79.6
2017-04-03T10:42:54.788Z,79.4
2017-04-03T10:43:56.671Z,80.1
2017-04-03T10:44:58.502Z,80.5
2017-04-03T10:46:00.954Z,79.7
2017-04-03T10:47:02.791Z,80.1
2017-04-03T10:48:04.622Z,79.8
2017-04-03T10:49:06.456Z,79.3
2017-04-03T10:50:08.286Z,79.3
2017-04-03T10:51:10.118Z,78.7
2017-04-03T10:52:11.945Z,79.1
2017-04-03T10:53:13.777Z,78.6
2017-04-03T10:54:15.602Z,78
2017-04-03T10:55:17.432Z,78.8
2017-04-03T10:56:19.258Z,78.1
2017-04-03T10:57:21.094Z,78.2
2017-04-03T10:58:22.933Z,78.6
2017-04-03T10:59:24.765Z,78.2
2017-04-03T11:00:26.593Z,78.3
2017-04-03T11:01:28.422Z,78.3
2017-04-03T11:02:30.695Z,78.3
2017-04-03T11:03:32.530Z,78.6
2017-04-03T11:04:34.400Z,78.7
2017-04-03T11:05:36.232Z,78.1
2017-04-03T11:06:38.089Z,77
2017-04-03T11:07:39.915Z,77.2
2017-04-03T11:08:41.744Z,77.7
2017-04-03T11:09:43.578Z,77.6
2017-04-03T11:10:45.399Z,76.9
2017-04-03T11:11:47.229Z,76.9
2017-04-03T11:12:49.055Z,76.9
2017-04-03T11:13:50.888Z,75.8
2017-04-03T11:14:53.397Z,75.9
2017-04-03T11:15:55.648Z,73.6
2017-04-03T11:16:57.475Z,74.2
2017-04-03T11:17:59.302Z,74.6
2017-04-03T11:19:01.140Z,73.8
2017-04-03T11:20:03.306Z,74.1
2017-04-03T11:21:05.144Z,73.6
2017-04-03T11:22:07.320Z,73
2017-04-03T11:23:09.495Z,71.4
2017-04-03T11:24:11.702Z,71.7
2017-04-03T11:25:13.528Z,71.6
2017-04-03T11:26:15.358Z,72
2017-04-03T11:27:17.190Z,72.3
2017-04-03T11:28:19.379Z,71.8
2017-04-03T11:29:21.205Z,71.3
2017-04-03T11:30:23.033Z,71.5
2017-04-03T11:31:24.873Z,71.3
2017-04-03T11:32:26.706Z,70.3
2017-04-03T11:33:28.535Z,70.3
2017-04-03T11:34:30.365Z,71
2017-04-03T11:35:32.240Z,71.8
2017-04-03T11:36:34.824Z,70.1
2017-04-03T11:37:36.657Z,70.1
2017-04-03T11:38:38.549Z,71
2017-04-03T11:39:40.387Z,70.7
2017-04-03T11:40:42.218Z,70.2
2017-04-03T11:41:44.048Z,69.1
2017-04-03T11:42:45.876Z,69.7
2017-04-03T11:43:47.724Z,69.4
2017-04-03T11:44:49.551Z,69.3
2017-04-03T11:45:51.754Z,69.5
2017-04-03T11:46:53.590Z,69.7
2017-04-03T11:47:55.423Z,70.1
2017-04-03T11:48:57.256Z,69.5
2017-04-03T11:49:59.425Z,69.7
2017-04-03T11:51:01.672Z,70.1
2017-04-03T11:52:03.832Z,70.2
2017-04-03T11:53:05.681Z,70.2
2017-04-03T11:54:07.511Z,70.6
2017-04-03T11:55:09.338Z,70.6
2017-04-03T11:56:11.166Z,70.4
2017-04-03T11:57:12.994Z,70.7
2017-04-03T11:58:15.160Z,70.5
2017-04-03T11:59:17.031Z,70.3
2017-04-03T12:00:18.906Z,70
2017-04-03T12:01:20.751Z,70.1
2017-04-03T12:02:22.596Z,70.3
2017-04-03T12:03:24.433Z,70.5
2017-04-03T12:04:26.597Z,70.3
2017-04-03T12:05:28.481Z,70.4
2017-04-03T12:06:30.307Z,70.1
2017-04-03T12:07:32.268Z,70.3
2017-04-03T12:08:34.436Z,69.6
2017-04-03T12:09:36.275Z,69.5
2017-04-03T12:10:38.201Z,69.4
2017-04-03T12:11:40.408Z,70
2017-04-03T12:12:42.240Z,69.2
2017-04-03T12:13:44.076Z,69.7
2017-04-03T12:14:45.914Z,69.4
2017-04-03T12:15:47.748Z,69.6
2017-04-03T12:16:49.650Z,69.7
2017-04-03T12:17:51.486Z,69.3
2017-04-03T12:18:53.358Z,69.5
2017-04-03T12:19:55.540Z,69
2017-04-03T12:20:57.466Z,69.2
2017-04-03T12:21:59.308Z,68.1
2017-04-03T12:23:01.159Z,68.5
2017-04-03T12:24:02.987Z,68
2017-04-03T12:25:04.819Z,67.9
2017-04-03T12:26:06.778Z,68.6
2017-04-03T12:27:09.146Z,66.9
2017-04-03T12:28:10.981Z,68
2017-04-03T12:29:13.492Z,68
2017-04-03T12:30:15.479Z,68.3
2017-04-03T12:31:17.308Z,67.5
2017-04-03T12:32:19.137Z,67.7
2017-04-03T12:33:20.965Z,67.9
2017-04-03T12:34:22.803Z,67.4
2017-04-03T12:35:28.044Z,68.3
2017-04-03T12:36:30.371Z,68.3
2017-04-03T12:37:32.201Z,68.1
2017-04-03T12:38:34.735Z,68.6
2017-04-03T12:39:36.909Z,68.6
2017-04-03T12:40:39.074Z,68.1
2017-04-03T12:41:40.910Z,68.8
2017-04-03T12:42:42.738Z,69.4
2017-04-03T12:43:44.573Z,67.5
2017-04-03T12:44:46.399Z,67.2
2017-04-03T12:45:48.233Z,66.3
2017-04-03T12:46:50.074Z,66.1
2017-04-03T12:52:17.499Z,66.1
2017-04-03T12:53:22.619Z,65
2017-04-03T12:54:26.436Z,64.7
2017-04-03T12:55:29.197Z,66
2017-04-03T12:56:31.997Z,64.4
2017-04-03T12:57:35.117Z,65.2
2017-04-03T12:58:52.368Z,65.9
2017-04-03T12:59:55.161Z,64.1
2017-04-03T13:00:57.954Z,64.8
2017-04-03T13:02:00.461Z,65.8
2017-04-03T13:03:03.406Z,63.3
2017-04-03T13:04:06.753Z,63
2017-04-03T13:05:09.027Z,62.3
2017-04-03T13:06:10.867Z,62.1
2017-04-03T13:07:14.606Z,62.6
2017-04-03T13:08:16.465Z,62.1
2017-04-03T13:09:18.473Z,62.7
2017-04-03T13:10:20.290Z,61.1
2017-04-03T13:11:22.133Z,62.7
2017-04-03T13:12:23.970Z,62
2017-04-03T13:13:25.815Z,62.1
2017-04-03T13:14:27.653Z,62.6
2017-04-03T13:15:29.594Z,62
2017-04-03T13:16:31.421Z,60.5
2017-04-03T13:17:33.294Z,62
2017-04-03T13:18:35.127Z,60.8
2017-04-03T13:19:36.944Z,60.1
2017-04-03T13:20:38.825Z,57.9
2017-04-03T13:21:40.995Z,58.5
2017-04-03T13:22:42.855Z,56.6
2017-04-03T13:23:45.036Z,56.1
2017-04-03T13:24:47.187Z,54.9
2017-04-03T13:25:49.132Z,54.6
2017-04-03T13:26:51.130Z,54.5
2017-04-03T13:27:52.976Z,53.2
2017-04-03T13:28:54.797Z,52.6
2017-04-03T13:29:57.056Z,53.4
2017-04-03T13:30:58.899Z,51.8
2017-04-03T13:32:00.767Z,52
2017-04-03T13:33:02.615Z,51.2
2017-04-03T13:34:04.457Z,51.2
2017-04-03T13:35:06.314Z,52.2
2017-04-03T13:36:08.551Z,51.9
2017-04-03T13:37:10.464Z,51.5
2017-04-03T13:38:12.300Z,51.5
2017-04-03T13:39:14.130Z,51
2017-04-03T13:40:16.163Z,50.1
2017-04-03T13:41:18.000Z,50.5
2017-04-03T13:42:19.847Z,49.7
2017-04-03T13:43:22.034Z,51
2017-04-03T13:44:23.968Z,49.3
2017-04-03T13:45:25.809Z,48.4
2017-04-03T13:46:27.651Z,48.9
2017-04-03T13:47:29.485Z,48
2017-04-03T13:48:31.324Z,47.3
2017-04-03T13:49:33.320Z,47.2
2017-04-03T13:50:35.158Z,46.9
2017-04-03T13:51:36.989Z,47.1
2017-04-03T13:52:38.825Z,46.6
2017-04-03T13:53:40.661Z,47.6
2017-04-03T13:54:42.500Z,46.4
2017-04-03T13:55:44.354Z,48.3
2017-04-03T13:59:40.373Z,47